Date,TemperatureHighF,TemperatureAvgF,TemperatureLowF,DewpointHighF,DewpointAvgF,DewpointLowF,HumidityHigh,HumidityAvg,HumidityLow,PressureMaxIn,PressureMinIn,WindSpeedMaxMPH,WindSpeedAvgMPH,GustSpeedMaxMPH,PrecipitationSumIn
2013-4-1,41,32,25,30,25,19,96,74,48,30.07,29.95,8,3,15,0.00
2013-4-2,32,30,28,31,29,27,100,97,96,30.15,30.04,6,1,7,0.06
2013-4-3,52,38,27,38,28,20,98,72,38,30.16,30.08,19,2,20,0.25
2013-4-4,60,48,38,29,20,13,56,35,17,30.12,29.87,16,4,29,0.00
2013-4-5,62,51,38,33,18,10,82,29,17,29.87,29.50,23,7,36,0.03
2013-4-6,52,44,36,26,18,11,53,36,21,29.80,29.62,32,7,49,0.00
2013-4-7,51,43,36,29,20,12,76,41,23,29.75,29.55,33,8,60,0.00
2013-4-8,50,40,22,30,24,16,94,56,30,29.62,29.32,17,4,25,0.00
2013-4-9,21,10,4,19,6,-1,90,82,78,30.36,29.60,12,2,13,0.00
2013-4-10,23,12,2,14,7,-4,88,79,57,30.40,30.16,17,2,28,0.00
2013-4-11,41,33,23,30,22,12,95,65,44,30.16,29.88,37,6,45,0.25
2013-4-12,46,33,27,29,25,10,96,76,23,29.95,29.85,24,3,35,0.04
2013-4-13,54,43,28,30,16,4,93,37,18,29.91,29.32,26,5,42,0.00
2013-4-14,34,29,24,31,11,-1,94,50,23,29.76,29.30,33,8,35,0.06
2013-4-15,28,20,14,21,15,7,88,83,43,30.11,29.74,14,1,14,0.03
2013-4-16,24,20,14,22,17,10,92,89,85,30.13,30.00,6,1,9,0.00
2013-4-17,23,17,9,20,14,4,90,87,81,30.29,30.03,6,1,9,0.00
2013-4-18,26,18,7,18,7,1,82,65,37,30.39,30.25,21,3,33,0.19
2013-4-19,42,32,23,18,11,3,53,43,33,30.34,30.02,34,8,41,0.10
2013-4-20,42,37,32,27,22,17,68,54,40,30.02,29.88,24,5,31,0.00
2013-4-21,48,40,32,23,17,12,66,40,24,30.04,29.90,14,4,29,0.00
2013-4-22,42,26,14,30,19,11,92,76,44,30.26,29.79,21,4,36,0.00
2013-4-23,24,17,10,19,12,6,86,82,72,30.43,30.23,9,2,16,0.22
2013-4-24,27,25,18,16,14,10,75,63,57,30.41,30.32,11,2,17,0.00
2013-4-25,27,27,27,15,15,15,60,60,60,30.35,29.53,2,2,0,0.00
2013-4-26,43,28,27,16,15,15,60,58,32,29.95,29.62,2,2,4,0.00
2013-4-27,43,43,43,16,16,16,33,33,33,29.86,29.70,2,2,0,0.00
2013-4-28,43,43,43,16,16,16,33,33,33,29.70,29.53,2,2,0,0.00
2013-4-29,43,43,43,16,16,16,33,33,33,29.61,29.29,2,2,0,0.00
2013-4-30,43,43,43,16,16,16,33,33,33,29.55,29.29,2,2,0,0.00